Time;durP1;ratioP1;P1;durP2;ratioP2;P2;SDS_P1;SDS_P2;PMS_P1;PMS_P2;Temp;Humidity;BMP_temperature;BMP_pressure;BME280_temperature;BME280_humidity;BME280_pressure;Samples;Min_cycle;Max_cycle;Signal;HPM_P1;HPM_P2
2023/05/11 00:01:34;;;;;;;11.30;10.10;;;13.30;99.90;;;-141.84;100.00;19509.00;5053661;28;20225;-66
2023/05/11 00:04:02;;;;;;;12.03;10.60;;;13.30;99.90;;;-141.84;100.00;19480.53;5061353;28;20200;-67
2023/05/11 00:06:32;;;;;;;12.10;10.80;;;13.30;99.90;;;-141.84;100.00;19454.13;5073593;28;20200;-67
2023/05/11 00:09:00;;;;;;;11.88;10.75;;;13.30;99.90;;;-141.84;100.00;19500.88;5073528;28;20201;-65
2023/05/11 00:11:28;;;;;;;12.05;10.68;;;13.30;99.90;;;-141.84;100.00;19492.75;5073601;28;20207;-66
2023/05/11 00:13:56;;;;;;;11.43;10.30;;;13.30;99.90;;;-141.84;100.00;19464.28;5073766;28;20201;-67
2023/05/11 00:16:24;;;;;;;11.60;10.47;;;13.20;99.90;;;-141.84;100.00;19492.75;5037002;28;20581;-67
2023/05/11 00:18:53;;;;;;;11.73;10.53;;;13.20;99.90;;;-141.84;100.00;19474.44;5033374;28;20255;-67
2023/05/11 00:21:21;;;;;;;11.80;10.60;;;13.30;99.90;;;-141.84;100.00;19439.91;5033044;28;20670;-66
2023/05/11 00:23:51;;;;;;;12.47;10.20;;;13.30;99.90;;;-141.84;100.00;19466.31;5048898;28;20201;-67
2023/05/11 00:26:20;;;;;;;11.45;10.35;;;13.30;99.90;;;-141.84;100.00;19482.56;5053096;28;20202;-68
2023/05/11 00:28:48;;;;;;;11.90;10.77;;;13.30;99.90;;;-141.84;100.00;19470.38;5053148;28;20193;-67
2023/05/11 00:31:16;;;;;;;10.37;9.37;;;13.30;99.90;;;-141.84;100.00;19468.34;5053110;28;20205;-67
2023/05/11 00:33:44;;;;;;;11.00;9.90;;;13.30;99.90;;;-141.84;100.00;19446.00;5058621;28;20404;-66
2023/05/11 00:36:12;;;;;;;10.97;9.90;;;13.20;99.90;;;-141.84;100.00;19431.78;5072772;28;20200;-66
2023/05/11 00:38:40;;;;;;;11.33;10.23;;;13.30;99.90;;;-141.84;100.00;19488.69;5072902;28;20204;-67
2023/05/11 00:41:10;;;;;;;11.23;10.13;;;13.20;99.90;;;-141.84;100.00;19456.16;5072984;28;20210;-66
2023/05/11 00:43:38;;;;;;;10.87;9.87;;;13.30;99.90;;;-141.84;100.00;19468.34;5073529;28;20281;-66
2023/05/11 00:46:06;;;;;;;9.88;8.90;;;13.30;99.90;;;-141.84;100.00;19439.91;5073223;28;20235;-67
2023/05/11 00:48:35;;;;;;;11.02;9.23;;;13.30;99.90;;;-141.84;100.00;19431.78;5069733;28;20229;-65
2023/05/11 00:51:04;;;;;;;10.00;9.00;;;13.30;99.90;;;-141.84;100.00;19435.84;5052845;28;20202;-66
2023/05/11 00:53:32;;;;;;;10.30;9.30;;;13.30;99.90;;;-141.84;100.00;19511.03;5053017;28;20603;-66
2023/05/11 00:56:01;;;;;;;10.40;9.40;;;13.20;99.90;;;-141.84;100.00;19456.16;5053237;28;20685;-66
2023/05/11 00:58:31;;;;;;;10.70;9.60;;;13.20;99.90;;;-141.84;100.00;19443.97;5052654;28;20212;-65
2023/05/11 01:01:00;;;;;;;11.40;10.30;;;13.20;99.90;;;-141.84;100.00;19458.19;5052503;28;20205;-66
2023/05/11 01:03:28;;;;;;;10.73;9.73;;;13.20;99.90;;;-141.84;100.00;19452.09;5055663;28;20793;-66
2023/05/11 01:06:10;;;;;;;9.90;8.90;;;13.20;99.90;;;-141.84;100.00;19452.09;5072758;28;20199;-65
2023/05/11 01:08:47;;;;;;;10.20;9.20;;;13.20;99.90;;;-141.84;100.00;19441.94;5072824;28;20280;-66
2023/05/11 01:11:31;;;;;;;10.17;9.10;;;13.20;99.90;;;-141.84;100.00;19419.59;5072666;28;20184;-66
2023/05/11 01:14:12;;;;;;;10.07;9.00;;;13.20;99.90;;;-141.84;100.00;19419.59;5072889;28;20215;-65
2023/05/11 01:16:45;;;;;;;10.60;9.50;;;13.20;99.90;;;-141.84;100.00;19415.50;5032193;28;20201;-66
2023/05/11 01:19:39;;;;;;;9.83;8.93;;;13.20;99.90;;;-141.84;100.00;19439.91;5033064;28;20277;-67
2023/05/11 01:22:28;;;;;;;10.48;9.48;;;13.20;99.90;;;-141.84;100.00;19427.72;5033428;28;20220;-66
2023/05/11 01:25:13;;;;;;;10.63;9.53;;;13.20;99.90;;;-141.84;100.00;19423.66;5052260;28;20672;-66
2023/05/11 01:28:08;;;;;;;10.93;9.82;;;13.20;99.90;;;-141.84;100.00;19439.91;5051915;28;20193;-66
2023/05/11 01:30:47;;;;;;;10.23;9.13;;;13.20;99.90;;;-141.84;100.00;19462.25;5052328;28;20182;-66
2023/05/11 01:33:24;;;;;;;10.93;9.77;;;13.10;99.90;;;-141.84;100.00;19425.69;5053188;28;20216;-67
2023/05/11 01:36:03;;;;;;;10.35;9.35;;;13.10;99.90;;;-141.84;100.00;19443.97;5072066;28;20196;-65
2023/05/11 01:38:37;;;;;;;9.68;8.77;;;13.10;99.90;;;-141.84;100.00;19417.56;5072097;28;20217;-65
2023/05/11 01:41:14;;;;;;;10.65;9.35;;;13.10;99.90;;;-141.84;100.00;19425.69;5072353;28;20197;-66
2023/05/11 01:43:47;;;;;;;10.33;9.33;;;13.00;99.90;;;-141.84;100.00;19441.94;5072064;28;20212;-65
2023/05/11 01:46:18;;;;;;;10.60;9.60;;;13.00;99.90;;;-141.84;100.00;19380.97;5071925;28;20190;-66
2023/05/11 01:48:51;;;;;;;10.20;8.90;;;13.00;99.90;;;-141.84;100.00;19403.31;5047668;28;20255;-66
2023/05/11 01:51:20;;;;;;;10.18;9.23;;;13.00;99.90;;;-141.84;100.00;19446.00;5035248;28;20186;-65
2023/05/11 01:53:52;;;;;;;11.13;9.93;;;13.00;99.90;;;-141.84;100.00;19378.94;5051785;28;20213;-65
2023/05/11 01:56:22;;;;;;;10.60;9.52;;;13.00;99.90;;;-141.84;100.00;19395.19;5051610;28;20193;-66
2023/05/11 01:58:52;;;;;;;10.90;9.90;;;13.00;99.90;;;-141.84;100.00;19374.88;5051473;28;20600;-66
2023/05/11 02:01:24;;;;;;;10.97;9.70;;;13.00;99.90;;;-141.84;100.00;19376.91;5051763;28;20193;-66
2023/05/11 02:03:55;;;;;;;11.07;9.93;;;13.00;99.90;;;-141.84;100.00;19385.03;5057957;28;20213;-66
2023/05/11 02:06:26;;;;;;;10.90;9.80;;;13.00;99.90;;;-141.84;100.00;19389.09;5071740;28;20181;-66
2023/05/11 02:08:58;;;;;;;11.50;10.32;;;13.00;99.90;;;-141.84;100.00;19383.00;5071671;28;20196;-66
2023/05/11 02:11:29;;;;;;;10.20;9.20;;;13.10;99.90;;;-141.84;100.00;19399.25;5071812;28;20189;-65
2023/05/11 02:13:59;;;;;;;11.93;10.70;;;13.00;99.90;;;-141.84;100.00;19409.41;5056381;28;20181;-66
2023/05/11 02:16:32;;;;;;;10.70;9.60;;;13.00;99.90;;;-141.84;100.00;19358.63;5033058;28;20213;-65
2023/05/11 02:19:00;;;;;;;12.00;10.65;;;13.00;99.90;;;-141.84;100.00;19324.06;5031496;28;20601;-66
2023/05/11 02:21:32;;;;;;;11.90;10.60;;;13.10;99.90;;;-141.84;100.00;19350.50;5031569;28;20301;-66
2023/05/11 02:24:04;;;;;;;11.43;10.23;;;13.00;99.90;;;-141.84;100.00;19342.34;5048282;28;20206;-66
2023/05/11 02:26:32;;;;;;;11.85;10.60;;;13.10;99.90;;;-141.84;100.00;19348.47;5051915;28;20275;-66
2023/05/11 02:29:01;;;;;;;12.10;10.83;;;13.00;99.90;;;-141.84;100.00;19346.44;5051405;28;20198;-66
2023/05/11 02:31:36;;;;;;;12.97;11.67;;;13.00;99.90;;;-141.84;100.00;19346.44;5051211;28;20680;-65
2023/05/11 02:34:13;;;;;;;11.93;10.77;;;13.10;99.90;;;-141.84;100.00;19352.53;5059269;28;20227;-66
2023/05/11 02:36:43;;;;;;;12.87;11.27;;;13.10;99.90;;;-141.84;100.00;19358.63;5071445;28;20199;-66
2023/05/11 02:39:18;;;;;;;13.17;11.63;;;13.10;99.90;;;-141.84;100.00;19346.44;5071279;28;20572;-65
2023/05/11 02:41:49;;;;;;;13.75;12.23;;;13.10;99.90;;;-141.84;100.00;19348.47;5071181;28;20727;-67
2023/05/11 02:44:20;;;;;;;13.93;12.43;;;13.10;99.90;;;-141.84;100.00;19328.13;5059448;28;20206;-66
2023/05/11 02:46:54;;;;;;;13.75;12.35;;;13.10;99.90;;;-141.84;100.00;19338.28;5031321;28;20233;-66
2023/05/11 02:49:27;;;;;;;15.40;12.80;;;13.10;99.90;;;-141.84;100.00;19299.69;5030957;28;20316;-66
2023/05/11 02:51:59;;;;;;;13.90;12.20;;;13.10;99.90;;;-141.84;100.00;19309.84;5039470;28;20193;-66
2023/05/11 02:54:29;;;;;;;15.10;11.75;;;13.10;99.90;;;-141.84;100.00;19309.84;5051243;28;20193;-65
2023/05/11 02:56:58;;;;;;;14.53;12.53;;;13.10;99.90;;;-141.84;100.00;19275.31;5050971;28;20678;-66
2023/05/11 02:59:27;;;;;;;14.07;12.57;;;13.10;99.90;;;-141.84;100.00;19291.56;5051158;28;20228;-66
2023/05/11 03:01:58;;;;;;;14.73;12.90;;;13.10;99.90;;;-141.84;100.00;19307.81;5051058;28;20204;-66
2023/05/11 03:04:27;;;;;;;15.37;12.87;;;13.10;99.90;;;-141.84;100.00;19334.22;5043947;28;20210;-65
2023/05/11 03:06:55;;;;;;;15.75;12.77;;;13.10;99.90;;;-141.84;100.00;19250.91;5037238;28;20260;-65
2023/05/11 03:09:24;;;;;;;17.33;13.02;;;13.10;99.90;;;-141.84;100.00;19285.47;5030971;28;20209;-66
2023/05/11 03:11:52;;;;;;;14.32;12.13;;;13.10;99.90;;;-141.84;100.00;19283.44;5031201;28;20555;-65
2023/05/11 03:14:21;;;;;;;16.73;12.90;;;13.10;99.90;;;-141.84;100.00;19273.28;5031034;28;20201;-66
2023/05/11 03:16:50;;;;;;;17.45;12.57;;;13.10;99.90;;;-141.84;100.00;19240.75;5031064;28;20195;-65
2023/05/11 03:19:20;;;;;;;17.37;13.63;;;13.10;99.90;;;-141.84;100.00;19236.69;5030881;28;20203;-65
2023/05/11 03:21:52;;;;;;;17.97;14.63;;;13.10;99.90;;;-141.84;100.00;19261.06;5031347;28;20206;-66
2023/05/11 03:24:21;;;;;;;21.70;14.63;;;13.10;99.90;;;-141.84;100.00;19248.88;5050656;28;20216;-66
2023/05/11 03:26:51;;;;;;;18.88;15.63;;;13.10;99.90;;;-141.84;100.00;19303.75;5052891;28;20217;-66
2023/05/11 03:29:21;;;;;;;21.83;16.40;;;13.10;99.90;;;-141.84;100.00;19307.81;5054258;28;20676;-64
2023/05/11 03:31:50;;;;;;;19.88;15.38;;;13.20;99.90;;;-141.84;100.00;19281.41;5054520;28;20201;-66
2023/05/11 03:34:19;;;;;;;21.25;16.67;;;13.10;99.90;;;-141.84;100.00;19320.00;5063908;28;20200;-65
2023/05/11 03:36:50;;;;;;;21.17;16.10;;;13.20;99.90;;;-141.84;100.00;19350.50;5074592;28;20207;-65
2023/05/11 03:39:21;;;;;;;19.77;15.77;;;13.30;99.90;;;-141.84;100.00;19330.16;5074371;28;20181;-66
2023/05/11 03:41:52;;;;;;;19.58;14.57;;;13.30;99.90;;;-141.84;100.00;19352.53;5041375;28;20217;-65
2023/05/11 03:44:22;;;;;;;21.95;16.00;;;13.20;99.90;;;-141.84;100.00;19342.34;5034216;28;20210;-66
2023/05/11 03:46:52;;;;;;;22.00;16.50;;;13.30;99.90;;;-141.84;100.00;19346.44;5034108;28;20202;-66
2023/05/11 03:49:22;;;;;;;18.95;14.63;;;13.20;99.90;;;-141.84;100.00;19338.28;5033587;28;20230;-66
2023/05/11 03:51:50;;;;;;;21.50;16.60;;;13.20;99.90;;;-141.84;100.00;19307.81;5042063;28;20604;-66
2023/05/11 03:54:19;;;;;;;20.02;16.02;;;13.30;99.90;;;-141.84;100.00;19309.84;5053967;28;20205;-67
2023/05/11 03:56:47;;;;;;;20.83;15.25;;;13.20;99.90;;;-141.84;100.00;19338.28;5053608;28;20581;-66
2023/05/11 03:59:16;;;;;;;20.93;16.13;;;13.20;99.90;;;-141.84;100.00;19338.28;5053783;28;20201;-66
2023/05/11 04:01:45;;;;;;;18.43;14.07;;;13.30;99.90;;;-141.84;100.00;19311.88;5053739;28;20613;-65
2023/05/11 04:04:13;;;;;;;17.90;14.93;;;13.30;99.90;;;-141.84;100.00;19368.78;5062457;28;20236;-65
2023/05/11 04:06:42;;;;;;;18.98;13.98;;;13.30;99.90;;;-141.84;99.51;19362.69;5073890;28;20201;-66
2023/05/11 04:09:11;;;;;;;16.83;13.65;;;13.30;99.90;;;-141.84;99.25;19364.72;5073615;28;20212;-66
2023/05/11 04:11:39;;;;;;;18.02;14.68;;;13.30;99.90;;;-141.84;99.25;19350.50;5073775;28;20209;-67
2023/05/11 04:14:08;;;;;;;15.60;13.60;;;13.40;99.90;;;-141.84;99.29;19374.88;5073260;28;20701;-66
2023/05/11 04:16:36;;;;;;;15.65;13.20;;;13.40;99.90;;;-141.84;98.71;19342.34;5033818;28;20232;-66
2023/05/11 04:19:05;;;;;;;15.88;12.40;;;13.40;99.90;;;-141.84;98.64;19383.00;5033115;28;20729;-65
2023/05/11 04:21:33;;;;;;;13.95;12.55;;;13.40;99.90;;;-141.84;98.71;19383.00;5033563;28;20206;-65
2023/05/11 04:24:03;;;;;;;14.57;12.50;;;13.40;99.90;;;-141.84;98.57;19407.38;5050283;28;20697;-65
2023/05/11 04:26:31;;;;;;;13.10;11.73;;;13.40;99.90;;;-141.84;98.62;19354.56;5053184;28;20673;-65
2023/05/11 04:28:59;;;;;;;15.02;12.85;;;13.50;99.90;;;-141.84;98.57;19393.16;5053269;28;20193;-66
2023/05/11 04:31:29;;;;;;;13.02;11.73;;;13.50;99.90;;;-141.84;98.51;19364.72;5052843;28;20696;-66
2023/05/11 04:33:57;;;;;;;12.48;11.23;;;13.50;99.90;;;-141.84;98.23;19366.75;5059934;28;20660;-65
2023/05/11 04:36:25;;;;;;;13.02;11.68;;;13.50;99.90;;;-141.84;98.23;19370.81;5066829;28;20827;-66
2023/05/11 04:38:53;;;;;;;12.18;10.88;;;13.60;99.90;;;-141.84;98.27;19372.84;5033473;28;20267;-66
2023/05/11 04:41:23;;;;;;;13.50;12.10;;;13.60;99.90;;;-141.84;97.81;19411.44;5032890;28;20206;-65
2023/05/11 04:43:51;;;;;;;12.65;11.38;;;13.70;99.90;;;-141.84;96.95;19395.19;5032860;28;20228;-66
2023/05/11 04:46:19;;;;;;;11.85;10.65;;;13.70;99.90;;;-141.84;96.78;19395.19;5033101;28;20225;-67
2023/05/11 04:48:48;;;;;;;11.93;10.73;;;13.80;99.90;;;-141.84;96.88;19441.94;5032726;28;20669;-66
2023/05/11 04:51:16;;;;;;;10.50;9.40;;;13.80;99.90;;;-141.84;96.74;19429.75;5036031;28;20196;-66
2023/05/11 04:53:44;;;;;;;11.82;10.65;;;13.90;99.90;;;-141.84;95.17;19443.97;5053243;28;20201;-66
2023/05/11 04:56:12;;;;;;;11.93;10.73;;;14.00;99.90;;;-141.84;94.13;19466.31;5052908;28;20208;-65
2023/05/11 04:58:42;;;;;;;11.27;10.23;;;14.10;99.90;;;-141.84;93.71;19460.22;5053241;28;20240;-66
2023/05/11 05:01:10;;;;;;;12.07;10.20;;;14.10;99.90;;;-141.84;92.58;19492.75;5052433;28;20570;-66
2023/05/11 05:03:38;;;;;;;11.40;10.30;;;14.30;99.90;;;-141.84;92.15;19506.97;5056739;28;20211;-65
2023/05/11 05:06:07;;;;;;;11.88;10.77;;;14.30;99.90;;;-141.84;91.50;19541.50;5072366;28;20574;-66
2023/05/11 05:08:35;;;;;;;11.65;10.45;;;14.30;99.90;;;-141.84;91.34;19531.34;5072593;28;20208;-65
2023/05/11 05:11:03;;;;;;;11.85;10.65;;;14.30;99.90;;;-141.84;90.66;19561.84;5072511;28;20205;-65
2023/05/11 05:13:31;;;;;;;11.80;10.70;;;14.40;99.90;;;-141.84;87.38;19574.03;5072346;28;20574;-66
2023/05/11 05:16:01;;;;;;;11.07;9.98;;;14.40;99.90;;;-141.84;87.35;19616.72;5041746;28;20206;-65
2023/05/11 05:18:29;;;;;;;11.20;10.10;;;14.30;99.90;;;-141.84;87.38;19578.09;5032690;28;20210;-66
2023/05/11 05:20:57;;;;;;;10.77;9.77;;;14.30;99.90;;;-141.84;86.85;19628.91;5032231;28;20201;-65
2023/05/11 05:23:25;;;;;;;11.77;10.68;;;14.30;99.90;;;-141.84;87.09;19632.97;5044325;28;20205;-65
2023/05/11 05:25:54;;;;;;;11.70;10.40;;;14.40;99.90;;;-141.84;87.24;19649.22;5052345;28;20248;-66
2023/05/11 05:28:22;;;;;;;12.55;10.75;;;14.40;99.90;;;-141.84;86.41;19635.00;5052289;28;20280;-65
2023/05/11 05:30:50;;;;;;;12.00;10.70;;;14.50;99.90;;;-141.84;84.80;19710.19;5052291;28;20208;-64
2023/05/11 05:33:19;;;;;;;11.20;10.07;;;14.60;99.90;;;-141.84;84.19;19700.03;5053287;28;20288;-65
2023/05/11 05:35:48;;;;;;;11.48;10.38;;;14.60;99.90;;;-141.84;84.55;19740.69;5038617;28;20202;-65
2023/05/11 05:38:16;;;;;;;10.93;9.93;;;14.70;99.90;;;-141.84;84.55;19744.75;5032312;28;20220;-67
2023/05/11 05:40:44;;;;;;;10.55;9.55;;;14.80;99.90;;;-141.84;83.60;19765.06;5031861;28;20209;-65
2023/05/11 05:43:12;;;;;;;10.35;9.45;;;14.80;99.90;;;-141.84;82.49;19787.41;5031747;28;20612;-64
2023/05/11 05:45:40;;;;;;;10.43;9.40;;;14.90;99.90;;;-141.84;81.57;19834.16;5032041;28;20229;-65
2023/05/11 05:48:08;;;;;;;9.60;8.70;;;15.00;99.90;;;-141.84;81.24;19880.91;5031005;28;20639;-63
2023/05/11 05:50:38;;;;;;;11.50;10.40;;;15.20;99.90;;;-141.84;80.18;19923.59;5031581;28;20206;-64
2023/05/11 05:53:06;;;;;;;9.27;8.48;;;15.30;99.90;;;-141.84;79.40;19970.34;5050340;28;20205;-64
2023/05/11 05:55:35;;;;;;;10.60;9.60;;;15.30;99.90;;;-141.84;77.29;20019.13;5051715;28;20205;-66
2023/05/11 05:58:03;;;;;;;8.52;7.82;;;15.50;99.90;;;-141.84;76.15;20051.63;5052229;28;20209;-65
2023/05/11 06:00:31;;;;;;;9.90;8.35;;;15.70;99.90;;;-141.84;75.07;20104.47;5051930;28;20217;-65
2023/05/11 06:02:59;;;;;;;8.90;8.05;;;15.90;99.90;;;-141.84;73.25;20159.34;5051641;28;20201;-65
2023/05/11 06:05:27;;;;;;;9.02;8.13;;;16.10;99.90;;;-141.84;71.43;20218.31;5070607;28;20260;-65
2023/05/11 06:07:57;;;;;;;8.90;8.00;;;16.30;99.90;;;-141.84;72.36;20220.34;5071618;28;20212;-65
2023/05/11 06:10:37;;;;;;;9.27;8.40;;;16.20;99.90;;;-141.84;72.56;20236.59;5071737;28;20212;-65
2023/05/11 06:13:08;;;;;;;9.35;8.45;;;16.20;99.90;;;-141.84;71.39;20301.63;5071657;28;20565;-66
2023/05/11 06:15:36;;;;;;;8.13;7.40;;;16.50;99.90;;;-141.84;72.04;20346.34;5048592;28;20198;-65
2023/05/11 06:18:05;;;;;;;8.18;7.38;;;;;;;-141.84;70.67;20395.13;5031661;28;20210;-64
2023/05/11 06:20:33;;;;;;;8.38;7.57;;;17.00;99.90;;;-141.84;67.88;20470.34;5031289;28;20665;-66
2023/05/11 06:23:03;;;;;;;7.53;6.93;;;17.40;99.90;;;-141.84;67.50;20490.66;5040359;28;20213;-65
2023/05/11 06:25:34;;;;;;;8.38;7.57;;;17.60;99.90;;;-141.84;66.75;20574.00;5051718;28;20231;-64
2023/05/11 06:28:02;;;;;;;7.60;6.90;;;17.70;99.90;;;-141.84;66.17;20569.94;5051458;28;20197;-64
2023/05/11 06:30:30;;;;;;;7.57;6.97;;;17.60;99.90;;;-141.84;65.79;20555.72;5050959;28;20684;-64
2023/05/11 06:32:58;;;;;;;8.82;8.13;;;17.70;99.90;;;-141.84;66.18;20586.22;5051198;28;20209;-63
2023/05/11 06:35:29;;;;;;;7.85;7.25;;;17.70;99.90;;;-141.84;66.42;20557.75;5070078;28;20201;-65
2023/05/11 06:37:57;;;;;;;9.70;8.80;;;17.70;99.90;;;-141.84;65.16;20608.56;5071331;28;20192;-64
2023/05/11 06:40:26;;;;;;;7.88;7.18;;;17.90;99.90;;;-141.84;65.89;20667.53;5071028;28;20581;-65
2023/05/11 06:42:55;;;;;;;8.10;7.40;;;18.10;99.90;;;-141.84;65.44;20704.13;5071255;28;20217;-64
2023/05/11 06:45:23;;;;;;;8.40;7.50;;;18.10;99.90;;;-141.84;66.42;20635.00;5071050;28;20719;-64
2023/05/11 06:47:51;;;;;;;7.95;7.22;;;18.20;99.90;;;-141.84;64.26;20669.56;5069867;28;20228;-64
2023/05/11 06:50:19;;;;;;;8.82;7.88;;;18.10;99.90;;;-141.84;64.04;20681.75;5053396;28;20205;-64
2023/05/11 06:52:48;;;;;;;8.88;8.07;;;18.20;99.90;;;-141.84;64.60;20689.88;5049507;28;20455;-64
2023/05/11 06:55:17;;;;;;;9.07;8.18;;;18.10;99.90;;;-141.84;64.03;20647.19;5049284;28;20240;-65
2023/05/11 06:57:46;;;;;;;8.38;7.60;;;18.10;99.90;;;-141.84;64.71;20614.66;5049406;28;20594;-65
2023/05/11 07:00:16;;;;;;;7.75;7.05;;;18.10;99.90;;;-141.84;64.86;20622.81;5051254;28;20579;-63
2023/05/11 07:02:44;;;;;;;8.75;7.95;;;18.10;99.90;;;-141.84;64.97;20618.72;5054908;28;20219;-64
2023/05/11 07:05:12;;;;;;;9.70;8.80;;;18.00;99.90;;;-141.84;65.34;20596.38;5071495;28;20220;-64
2023/05/11 07:07:41;;;;;;;8.35;7.55;;;18.00;99.90;;;-141.84;65.59;20578.09;5074774;28;20205;-65
2023/05/11 07:10:10;;;;;;;9.88;8.98;;;17.80;99.90;;;-141.84;66.00;20578.09;5074572;28;20203;-64
2023/05/11 07:12:38;;;;;;;9.65;8.60;;;17.80;99.90;;;-141.84;67.17;20525.22;5074672;28;20208;-64
2023/05/11 07:15:09;;;;;;;9.35;8.45;;;17.70;99.90;;;-141.84;65.36;20612.63;5059515;28;20712;-65
2023/05/11 07:17:37;;;;;;;9.90;8.88;;;17.70;99.90;;;-141.84;65.22;20606.53;5034644;28;20198;-64
2023/05/11 07:20:08;;;;;;;9.25;8.40;;;17.70;99.90;;;-141.84;65.50;20588.25;5034769;28;20284;-65
2023/05/11 07:22:36;;;;;;;9.40;8.60;;;17.80;99.90;;;-141.84;65.72;20630.94;5039749;28;20278;-64
2023/05/11 07:25:04;;;;;;;9.88;8.73;;;17.90;99.90;;;-141.84;65.00;20639.06;5052163;28;20209;-64
2023/05/11 07:27:33;;;;;;;9.25;8.45;;;17.90;99.90;;;-141.84;65.02;20622.81;5037002;28;20224;-64
2023/05/11 07:30:02;;;;;;;9.90;8.90;;;17.90;99.90;;;-141.84;65.00;20649.22;5054550;28;20197;-64
2023/05/11 07:32:32;;;;;;;9.07;8.20;;;17.90;99.90;;;-141.84;64.24;20630.94;5054285;28;20213;-64
2023/05/11 07:35:00;;;;;;;9.60;8.73;;;17.90;99.90;;;-141.84;64.70;20643.13;5070195;28;20197;-64
2023/05/11 07:37:28;;;;;;;9.65;8.63;;;18.00;99.90;;;-141.84;64.10;20720.38;5074352;28;20205;-65
2023/05/11 07:39:57;;;;;;;9.77;8.93;;;18.20;99.90;;;-141.84;63.42;20748.84;5074077;28;20584;-64
2023/05/11 07:42:25;;;;;;;10.02;9.13;;;18.40;99.90;;;-141.84;61.64;20828.13;5074154;28;20201;-63
2023/05/11 07:44:53;;;;;;;10.35;9.35;;;18.70;99.90;;;-141.84;60.82;20848.44;5074302;28;20218;-64
2023/05/11 07:47:22;;;;;;;10.68;9.57;;;18.80;99.90;;;-141.84;60.23;20883.00;5074092;28;20291;-64
2023/05/11 07:49:51;;;;;;;9.95;8.95;;;19.00;99.90;;;-141.84;60.07;20874.88;5059867;28;20320;-64
2023/05/11 07:52:20;;;;;;;11.63;9.50;;;19.10;99.90;;;-141.84;59.38;20956.19;5053933;28;20548;-65
2023/05/11 07:54:48;;;;;;;9.25;8.32;;;19.20;99.90;;;-141.84;59.31;20946.03;5054054;28;20202;-65
2023/05/11 07:57:16;;;;;;;10.18;8.70;;;19.40;99.90;;;-141.84;59.22;20976.53;5054139;28;20198;-65
2023/05/11 07:59:44;;;;;;;9.73;8.82;;;19.40;99.90;;;-141.84;58.48;21007.00;5053817;28;20201;-65
2023/05/11 08:02:12;;;;;;;9.00;8.20;;;19.50;99.90;;;-141.84;58.51;21011.09;5053904;28;20275;-64
2023/05/11 08:04:40;;;;;;;9.50;8.60;;;19.40;99.90;;;-141.84;57.66;20992.78;5066052;28;20239;-64
2023/05/11 08:07:10;;;;;;;9.48;8.68;;;19.40;99.90;;;-141.84;58.78;20972.47;5073928;28;20231;-65
2023/05/11 08:09:38;;;;;;;8.73;7.97;;;19.40;99.90;;;-141.84;60.18;20903.34;5073505;28;20668;-64
2023/05/11 08:12:07;;;;;;;9.15;8.27;;;19.10;99.90;;;-141.84;59.53;20941.97;5073023;28;20201;-65
2023/05/11 08:14:35;;;;;;;8.15;7.45;;;19.10;99.90;;;-141.84;60.01;20931.78;5067384;28;20205;-65
2023/05/11 08:17:04;;;;;;;8.48;7.72;;;19.10;99.90;;;-141.84;57.87;20992.78;5033390;28;20204;-64
2023/05/11 08:19:32;;;;;;;8.68;7.88;;;19.20;99.90;;;-141.84;58.58;20950.09;5033529;28;20289;-65
2023/05/11 08:22:01;;;;;;;8.88;7.80;;;19.30;99.90;;;-141.84;58.77;21009.03;5041264;28;20201;-64
2023/05/11 08:24:30;;;;;;;9.13;8.32;;;19.50;99.90;;;-141.84;56.72;21090.38;5037541;28;20236;-65
2023/05/11 08:26:58;;;;;;;7.75;7.10;;;19.70;99.90;;;-141.84;57.00;21141.19;5033588;28;20292;-63
2023/05/11 08:29:27;;;;;;;7.20;6.60;;;19.90;99.90;;;-141.84;55.57;21196.09;5051702;28;20208;-64
2023/05/11 08:31:55;;;;;;;8.18;7.47;;;20.00;99.90;;;-141.84;54.90;21169.66;5053497;28;20211;-65
2023/05/11 08:34:23;;;;;;;8.38;7.68;;;20.00;99.90;;;-141.84;55.23;21104.59;5062953;28;20220;-65
2023/05/11 08:36:53;;;;;;;8.60;7.80;;;19.90;99.90;;;-141.84;55.78;21204.22;5073147;28;20661;-65
2023/05/11 08:39:22;;;;;;;7.63;6.93;;;20.10;99.90;;;-141.84;53.32;21328.25;5073315;28;20201;-64
2023/05/11 08:42:16;;;;;;;6.78;6.20;;;20.40;99.90;;;-141.84;50.92;21419.72;5073622;28;20205;-64
2023/05/11 08:44:45;;;;;;;6.78;6.18;;;20.70;99.90;;;-141.84;51.68;21362.81;5073035;28;20199;-66
2023/05/11 08:47:13;;;;;;;8.50;6.38;;;20.60;99.90;;;-141.84;52.37;21338.41;5073142;28;20228;-64
2023/05/11 08:49:52;;;;;;;6.80;6.20;;;20.60;99.90;;;-141.84;53.40;21287.56;5058801;28;20236;-64
2023/05/11 08:52:20;;;;;;;7.13;6.53;;;20.50;99.90;;;-141.84;54.43;21250.97;5052957;28;20633;-64
2023/05/11 08:54:49;;;;;;;7.22;6.53;;;20.30;99.90;;;-141.84;53.37;21316.03;5052580;28;20201;-64
2023/05/11 08:57:19;;;;;;;7.90;7.15;;;20.30;99.90;;;-141.84;53.40;21324.19;5053026;28;20220;-64
2023/05/11 08:59:49;;;;;;;6.72;6.15;;;20.30;99.90;;;-141.84;52.51;21423.81;5052458;28;20534;-65
2023/05/11 09:02:19;;;;;;;7.22;6.57;;;20.60;99.90;;;-141.84;51.71;21383.13;5052503;28;20673;-65
2023/05/11 09:04:50;;;;;;;7.25;6.65;;;20.60;99.90;;;-141.84;51.66;21336.38;5066070;28;20215;-64
2023/05/11 09:07:19;;;;;;;7.25;6.65;;;20.50;99.90;;;-141.84;53.48;21271.31;5072759;28;20201;-64
2023/05/11 09:09:47;;;;;;;7.30;6.60;;;20.20;99.90;;;-141.84;54.22;21226.59;5072642;28;20200;-65
2023/05/11 09:12:17;;;;;;;7.85;7.22;;;20.10;99.90;;;-141.84;54.13;21183.88;5072335;28;20587;-63
2023/05/11 09:14:46;;;;;;;7.13;6.53;;;19.90;99.90;;;-141.84;53.99;21253.00;5063119;28;20210;-64
2023/05/11 09:17:14;;;;;;;7.47;6.82;;;20.00;99.90;;;-141.84;53.55;21277.41;5032181;28;20209;-63
2023/05/11 09:19:59;;;;;;;7.15;6.45;;;20.00;99.90;;;-141.84;52.53;21336.38;5051540;28;20581;-64
2023/05/11 09:22:28;;;;;;;7.47;6.53;;;20.30;99.90;;;-141.84;53.92;21301.81;5052458;28;20624;-64
2023/05/11 09:25:01;;;;;;;6.60;6.00;;;20.30;99.90;;;-141.84;53.24;21281.47;5052003;28;20634;-65
2023/05/11 09:27:31;;;;;;;6.53;5.88;;;20.20;99.90;;;-141.84;53.84;21234.72;5052257;28;20288;-64
2023/05/11 09:30:12;;;;;;;5.82;5.43;;;20.20;99.90;;;-141.84;53.34;21281.47;5051755;28;20208;-63
2023/05/11 09:32:51;;;;;;;5.93;5.38;;;20.20;99.90;;;-141.84;52.72;21352.63;5052188;28;20190;-64
2023/05/11 09:35:25;;;;;;;6.28;5.00;;;20.20;99.90;;;-141.84;51.67;21389.22;5070060;28;20585;-64
2023/05/11 09:38:03;;;;;;;5.88;5.38;;;20.40;99.90;;;-141.84;51.72;21399.41;5072042;28;20268;-64
2023/05/11 09:40:35;;;;;;;5.97;5.47;;;20.40;99.90;;;-141.84;51.28;21427.88;5071906;28;20188;-65
2023/05/11 09:43:17;;;;;;;6.32;5.72;;;20.50;99.90;;;-141.84;51.42;21387.19;5072144;28;20264;-64
2023/05/11 09:45:47;;;;;;;6.38;5.65;;;20.50;99.90;;;-141.84;52.53;21332.31;5072026;28;20189;-64
2023/05/11 09:48:27;;;;;;;6.10;5.50;;;20.40;99.90;;;-141.84;53.47;21350.59;5070927;28;20232;-64
2023/05/11 09:51:07;;;;;;;5.82;5.28;;;20.30;99.90;;;-141.84;52.56;21316.03;5051179;28;20641;-65
2023/05/11 09:53:39;;;;;;;5.32;4.88;;;20.30;99.90;;;-141.84;52.52;21324.19;5051980;28;20268;-64
2023/05/11 09:56:09;;;;;;;6.65;5.93;;;20.20;99.90;;;-141.84;52.47;21305.88;5051830;28;20254;-65
2023/05/11 09:58:51;;;;;;;5.70;5.00;;;20.20;99.90;;;-141.84;53.05;21301.81;5051852;28;20212;-65
2023/05/11 10:01:29;;;;;;;5.53;4.65;;;20.20;99.90;;;-141.84;52.58;21358.75;5051567;28;20186;-65
2023/05/11 10:03:59;;;;;;;4.90;4.50;;;20.30;99.90;;;-141.84;52.18;21368.91;5058416;28;20200;-64
2023/05/11 10:06:51;;;;;;;3.88;3.50;;;20.40;99.90;;;-141.84;51.03;21490.91;5071258;28;20763;-63
2023/05/11 10:09:24;;;;;;;3.88;3.58;;;20.70;99.90;;;-141.84;50.95;21488.88;5071778;28;20534;-64
2023/05/11 10:11:55;;;;;;;4.22;3.83;;;20.90;99.90;;;-141.84;50.23;21537.66;5071667;28;20243;-64